Time;durP1;ratioP1;P1;durP2;ratioP2;P2;SDS_P1;SDS_P2;PMS_P1;PMS_P2;Temp;Humidity;BMP_temperature;BMP_pressure;BME280_temperature;BME280_humidity;BME280_pressure;Samples;Min_cycle;Max_cycle;Signal;HPM_P1;HPM_P2
2021/06/26 00:01:19;;;;;;;18.38;7.70;;;;;;;23.99;53.39;98994.81;4937573;29;20078;-81
2021/06/26 00:03:45;;;;;;;21.75;7.95;;;;;;;24.07;53.28;98995.63;4936546;29;20496;-79
2021/06/26 00:06:11;;;;;;;20.67;10.15;;;;;;;24.13;52.96;98983.84;4920769;29;20048;-79
2021/06/26 00:08:37;;;;;;;29.08;9.55;;;;;;;24.15;53.04;98987.19;4936113;29;20374;-79
2021/06/26 00:11:03;;;;;;;26.27;9.68;;;;;;;24.18;52.64;98975.81;4937526;29;20576;-80
2021/06/26 00:13:29;;;;;;;30.25;11.05;;;;;;;24.20;52.77;98977.28;4936162;29;20062;-79
2021/06/26 00:15:55;;;;;;;42.65;13.68;;;;;;;24.26;52.67;98978.31;4920508;29;20047;-78
2021/06/26 00:18:20;;;;;;;28.73;12.07;;;;;;;24.28;52.79;98970.72;4937382;29;20099;-77
2021/06/26 00:20:46;;;;;;;30.48;11.43;;;;;;;24.35;52.62;98963.31;4920526;29;20419;-78
2021/06/26 00:23:12;;;;;;;31.90;10.63;;;;;;;24.32;52.79;98947.38;4920265;29;20051;-81
2021/06/26 00:25:39;;;;;;;29.17;9.85;;;;;;;24.36;52.58;98951.31;4936015;29;20154;-79
2021/06/26 00:28:05;;;;;;;20.48;8.50;;;;;;;24.42;52.71;98950.47;4937026;29;20403;-77
2021/06/26 00:30:31;;;;;;;34.50;17.98;;;;;;;24.46;52.75;98954.44;4888908;29;20522;-78
2021/06/26 00:32:57;;;;;;;17.52;7.40;;;;;;;24.54;52.48;98944.28;4936120;29;20384;-78
2021/06/26 00:35:23;;;;;;;17.75;8.90;;;;;;;24.56;52.26;98934.81;4936955;29;20054;-78
2021/06/26 00:37:49;;;;;;;13.95;6.70;;;;;;;24.59;52.04;98949.91;4920045;29;20074;-79
2021/06/26 00:40:15;;;;;;;12.50;6.43;;;;;;;24.54;52.22;98953.31;4935798;29;20047;-78
2021/06/26 00:42:43;;;;;;;14.25;6.63;;;;;;;24.53;52.36;98979.00;4919881;29;20142;-80
2021/06/26 00:45:12;;;;;;;8.35;6.50;;;;;;;24.46;52.28;98984.50;4936885;29;20095;-81
2021/06/26 00:47:38;;;;;;;7.95;5.75;;;;;;;24.50;52.32;98956.72;4935577;29;20130;-79
2021/06/26 00:50:05;;;;;;;12.40;5.75;;;;;;;24.52;52.19;98962.78;4936745;29;20056;-78
2021/06/26 00:52:31;;;;;;;13.80;6.13;;;;;;;24.51;52.15;98963.88;4951648;29;20067;-78
2021/06/26 00:54:57;;;;;;;10.35;6.32;;;;;;;24.53;52.09;98948.09;4935502;29;20082;-77
2021/06/26 00:57:24;;;;;;;12.63;7.22;;;;;;;24.55;51.96;98943.22;4936598;29;20035;-78
2021/06/26 00:59:49;;;;;;;10.35;6.38;;;;;;;24.60;51.63;98932.50;4936972;29;20090;-77
2021/06/26 01:02:15;;;;;;;19.98;7.70;;;;;;;24.55;51.70;98938.59;4935259;29;20391;-77
2021/06/26 01:04:41;;;;;;;11.05;6.13;;;;;;;24.63;51.56;98943.78;4935367;29;20482;-78
2021/06/26 01:07:07;;;;;;;18.70;7.13;;;;;;;24.62;51.50;98954.94;4936380;29;20490;-76
2021/06/26 01:09:33;;;;;;;10.85;6.93;;;;;;;24.59;51.64;98963.59;4936433;29;20506;-77
2021/06/26 01:11:59;;;;;;;10.60;6.07;;;;;;;24.39;52.38;98956.38;4935106;29;20139;-78
2021/06/26 01:14:26;;;;;;;13.93;6.47;;;;;;;24.30;52.45;98941.31;4950936;29;20546;-80
2021/06/26 01:16:54;;;;;;;11.00;5.88;;;;;;;24.34;52.64;98963.56;4919435;29;20078;-78
2021/06/26 01:19:19;;;;;;;16.35;6.82;;;;;;;24.18;52.89;98989.47;4919342;29;20471;-77
2021/06/26 01:21:46;;;;;;;11.55;6.43;;;;;;;24.04;54.04;99037.03;4935038;29;20510;-78
2021/06/26 01:24:16;;;;;;;6.85;5.90;;;;;;;23.94;53.91;99041.06;4935048;29;20146;-78
2021/06/26 01:26:42;;;;;;;15.50;7.15;;;;;;;24.06;53.84;99026.72;4934869;29;20142;-84
2021/06/26 01:29:11;;;;;;;11.32;6.25;;;;;;;24.08;53.93;99038.28;4936213;29;20044;-81
2021/06/26 01:31:37;;;;;;;17.45;6.90;;;;;;;23.88;54.54;99033.75;4934869;29;20043;-80
2021/06/26 01:34:04;;;;;;;23.35;7.60;;;;;;;23.57;55.81;99039.06;4919146;29;20154;-81
2021/06/26 01:36:30;;;;;;;18.00;7.43;;;;;;;23.62;55.92;99039.25;4919152;29;20403;-80
2021/06/26 01:38:56;;;;;;;15.27;7.25;;;;;;;23.74;55.29;99029.41;4935857;29;20074;-80
2021/06/26 01:41:29;;;;;;;9.15;6.82;;;;;;;23.72;55.31;99015.13;4935827;29;20183;-82
2021/06/26 01:43:54;;;;;;;19.60;8.85;;;;;;;23.82;54.94;98985.47;4903256;29;20062;-80
2021/06/26 01:46:20;;;;;;;11.32;7.20;;;;;;;23.95;54.71;98990.84;4935845;29;20044;-81
2021/06/26 01:48:46;;;;;;;15.00;6.78;;;;;;;24.06;54.56;99013.06;4935831;29;20337;-81
2021/06/26 01:51:12;;;;;;;10.63;6.82;;;;;;;24.03;54.32;99021.69;4934470;29;20047;-81
2021/06/26 01:53:38;;;;;;;10.38;6.78;;;;;;;24.06;54.27;99002.16;4934487;29;20052;-81
2021/06/26 01:56:04;;;;;;;14.55;6.15;;;;;;;24.13;53.73;98989.31;4934490;29;20131;-80
2021/06/26 01:58:30;;;;;;;11.70;6.70;;;;;;;24.28;53.73;99008.97;4934448;29;20545;-78
2021/06/26 02:00:56;;;;;;;11.77;6.80;;;;;;;24.36;53.37;99011.41;4935493;29;20048;-77
2021/06/26 02:03:22;;;;;;;13.63;6.07;;;;;;;24.29;53.43;99031.63;4935253;29;20111;-78
2021/06/26 02:05:48;;;;;;;9.50;5.93;;;;;;;24.07;53.44;99033.84;4935379;29;20067;-79
2021/06/26 02:08:14;;;;;;;10.70;6.07;;;;;;;24.05;53.64;99035.97;4935418;29;20048;-83
2021/06/26 02:10:39;;;;;;;9.32;6.13;;;;;;;24.06;53.59;99033.03;4935657;29;20436;-83
2021/06/26 02:13:06;;;;;;;10.07;6.00;;;;;;;24.06;53.37;99026.72;4918641;29;20046;-80
2021/06/26 02:15:32;;;;;;;18.42;10.15;;;;;;;24.08;53.58;99024.63;4934002;29;20053;-82
2021/06/26 02:17:57;;;;;;;15.45;5.40;;;;;;;24.04;53.49;99017.94;4918529;29;20122;-82
2021/06/26 02:20:23;;;;;;;17.10;6.35;;;;;;;24.13;53.31;99011.16;4918427;29;20384;-79
2021/06/26 02:22:49;;;;;;;14.05;6.38;;;;;;;24.05;53.24;99009.50;4949997;28;20110;-86
2021/06/26 02:25:16;;;;;;;18.20;6.50;;;;;;;24.08;53.34;99008.25;4934500;29;20039;-82
2021/06/26 02:27:42;;;;;;;14.25;5.82;;;;;;;24.08;53.27;99013.72;4933798;29;20053;-81
2021/06/26 02:30:09;;;;;;;9.25;5.40;;;;;;;24.05;53.36;99031.34;4934126;29;20075;-81
2021/06/26 02:32:35;;;;;;;19.35;6.18;;;;;;;23.94;53.58;99024.69;4918476;29;20055;-80
2021/06/26 02:35:01;;;;;;;13.32;5.68;;;;;;;23.99;53.38;99024.84;4935178;29;20406;-81
2021/06/26 02:37:27;;;;;;;17.92;6.07;;;;;;;24.07;53.17;99022.94;4933997;29;20051;-82
2021/06/26 02:39:53;;;;;;;13.00;6.40;;;;;;;24.15;53.21;99025.44;4935120;29;20055;-80
2021/06/26 02:42:19;;;;;;;12.77;5.90;;;;;;;24.14;53.24;99030.03;4934053;29;20099;-82
2021/06/26 02:44:45;;;;;;;11.65;6.10;;;;;;;23.99;53.44;99027.59;4935143;29;20388;-82
2021/06/26 02:47:11;;;;;;;13.52;6.88;;;;;;;23.96;53.52;99027.22;4935839;29;20039;-84
2021/06/26 02:49:37;;;;;;;10.20;6.43;;;;;;;23.98;53.60;99025.09;4935236;29;20047;-80
2021/06/26 02:52:05;;;;;;;11.07;5.90;;;;;;;23.89;53.75;99024.50;4949693;28;20094;-81
2021/06/26 02:54:32;;;;;;;14.63;6.20;;;;;;;23.89;54.24;99040.88;4933855;29;20092;-82
2021/06/26 02:56:58;;;;;;;13.15;5.95;;;;;;;24.04;53.92;99042.50;4933718;29;20098;-81
2021/06/26 02:59:24;;;;;;;12.05;6.13;;;;;;;24.05;53.74;99046.91;4935143;29;20080;-82
2021/06/26 03:01:49;;;;;;;15.65;6.63;;;;;;;24.09;53.61;99042.69;4934929;29;20050;-82
2021/06/26 03:04:15;;;;;;;13.98;5.82;;;;;;;24.07;53.69;99045.66;4933821;29;20146;-82
2021/06/26 03:06:41;;;;;;;14.23;6.35;;;;;;;24.11;53.55;99052.34;4949822;29;20107;-81
2021/06/26 03:09:07;;;;;;;14.70;6.80;;;;;;;24.11;53.39;99046.88;4934834;29;20407;-82
2021/06/26 03:11:33;;;;;;;15.63;6.53;;;;;;;24.26;53.14;99054.78;4935135;29;20047;-85
2021/06/26 03:13:59;;;;;;;11.85;6.30;;;;;;;24.41;53.03;99047.16;4934707;29;20059;-82
2021/06/26 03:16:25;;;;;;;22.60;6.82;;;;;;;24.58;52.56;99042.00;4933726;29;20047;-81
2021/06/26 03:18:51;;;;;;;14.30;6.72;;;;;;;24.61;52.96;99041.56;4934790;29;20052;-83
2021/06/26 03:21:17;;;;;;;14.70;6.88;;;;;;;24.64;52.99;99040.28;4933527;29;20122;-80
2021/06/26 03:23:43;;;;;;;31.75;7.45;;;;;;;24.83;52.98;99039.31;4933502;29;20048;-82
2021/06/26 03:26:09;;;;;;;16.23;7.20;;;;;;;25.05;52.69;99036.16;4933661;29;20047;-83
2021/06/26 03:28:35;;;;;;;10.65;6.57;;;;;;;25.20;52.19;99033.97;4934370;29;20134;-80
2021/06/26 03:31:01;;;;;;;12.02;6.55;;;;;;;25.26;52.37;99043.16;4909152;29;20103;-79
2021/06/26 03:33:27;;;;;;;20.95;6.88;;;;;;;25.43;52.27;99039.63;4898802;29;20522;-79
2021/06/26 03:35:53;;;;;;;11.82;7.00;;;;;;;25.62;51.41;99036.91;4915831;29;20079;-80
2021/06/26 03:38:19;;;;;;;11.90;6.30;;;;;;;25.50;51.22;99028.63;4915739;29;20054;-82
2021/06/26 03:40:45;;;;;;;11.00;6.93;;;;;;;25.44;50.97;99033.09;4918234;29;20075;-84
2021/06/26 03:43:11;;;;;;;12.45;6.82;;;;;;;25.54;50.89;99034.44;4919057;29;20423;-78
2021/06/26 03:45:37;;;;;;;18.13;6.78;;;;;;;25.73;50.47;99022.47;4886594;29;20066;-78
2021/06/26 03:48:03;;;;;;;19.58;7.10;;;;;;;25.84;50.44;99026.34;4918731;29;20048;-79
2021/06/26 03:50:32;;;;;;;13.95;6.75;;;;;;;25.74;50.19;99018.66;4918996;29;20051;-83
2021/06/26 03:52:58;;;;;;;19.63;7.53;;;;;;;25.77;50.37;99029.13;4919310;29;20179;-81
2021/06/26 03:55:24;;;;;;;35.22;7.32;;;;;;;25.80;49.93;99028.72;4918836;29;20125;-80
2021/06/26 03:57:50;;;;;;;14.65;6.70;;;;;;;25.95;49.88;99027.47;4917492;29;20127;-81
2021/06/26 04:00:16;;;;;;;18.83;7.00;;;;;;;26.20;49.58;99025.44;4918625;29;20087;-79
2021/06/26 04:02:42;;;;;;;24.23;7.95;;;;;;;26.43;48.94;99010.16;4916241;29;20497;-78
2021/06/26 04:05:08;;;;;;;17.85;7.53;;;;;;;26.37;48.83;99023.75;4915805;29;20040;-77
2021/06/26 04:07:34;;;;;;;22.85;7.05;;;;;;;26.55;48.76;99024.75;4916737;29;20098;-78
2021/06/26 04:10:00;;;;;;;17.35;6.55;;;;;;;26.79;48.17;99021.03;4916700;29;20059;-83
2021/06/26 04:12:26;;;;;;;18.50;6.38;;;;;;;26.95;47.66;99011.25;4901171;29;20079;-78
2021/06/26 04:14:52;;;;;;;15.23;6.82;;;;;;;27.20;47.25;99022.03;4918042;29;20048;-76
2021/06/26 04:17:18;;;;;;;16.00;7.35;;;;;;;27.47;46.65;99016.88;4918654;29;20178;-78
2021/06/26 04:19:44;;;;;;;22.55;7.13;;;;;;;27.49;45.84;99014.72;4918019;29;20172;-78
2021/06/26 04:22:11;;;;;;;22.63;6.35;;;;;;;27.76;45.73;99009.59;4918363;29;20140;-76
2021/06/26 04:24:37;;;;;;;13.30;6.18;;;;;;;27.93;45.48;99011.56;4916758;29;20135;-79
2021/06/26 04:27:04;;;;;;;22.52;6.35;;;;;;;27.99;44.91;99013.34;4916523;29;20060;-79
2021/06/26 04:29:30;;;;;;;21.67;5.88;;;;;;;27.95;44.97;99006.69;4917689;29;20040;-77
2021/06/26 04:31:56;;;;;;;14.95;6.05;;;;;;;27.92;45.21;99008.00;4918022;29;20076;-78
2021/06/26 04:34:22;;;;;;;34.03;5.90;;;;;;;28.18;44.94;99005.75;4917067;29;20178;-81
2021/06/26 04:36:48;;;;;;;20.10;6.05;;;;;;;28.18;44.24;99005.75;4918220;29;20523;-80
2021/06/26 04:39:14;;;;;;;14.15;6.03;;;;;;;28.37;43.83;99007.25;4917918;29;20048;-82
2021/06/26 04:41:40;;;;;;;13.48;5.10;;;;;;;28.36;43.14;98996.44;4916963;29;20043;-78
2021/06/26 04:44:06;;;;;;;20.05;5.97;;;;;;;28.44;44.47;99007.09;4917983;29;20576;-80
2021/06/26 04:46:32;;;;;;;17.05;5.97;;;;;;;28.43;45.20;99008.16;4917564;29;20099;-80
2021/06/26 04:48:58;;;;;;;15.38;5.40;;;;;;;28.36;45.58;99004.69;4916660;29;20047;-80
2021/06/26 04:51:25;;;;;;;19.23;5.82;;;;;;;28.43;45.51;99003.47;4900462;29;20479;-80
2021/06/26 04:53:51;;;;;;;13.30;5.53;;;;;;;28.12;46.33;99002.06;4917815;29;20144;-81
2021/06/26 04:56:17;;;;;;;16.88;6.00;;;;;;;27.94;47.40;99002.25;4917771;29;20055;-79
2021/06/26 04:58:43;;;;;;;13.55;5.65;;;;;;;27.85;47.66;99004.53;4917523;29;20052;-79
2021/06/26 05:01:09;;;;;;;14.07;5.88;;;;;;;27.91;47.82;99000.84;4916886;29;20531;-80
2021/06/26 05:03:35;;;;;;;15.43;5.15;;;;;;;27.87;47.78;99002.41;4917708;29;20048;-81
2021/06/26 05:06:01;;;;;;;16.65;6.40;;;;;;;28.04;47.42;98994.22;4917550;29;20507;-80
2021/06/26 05:08:27;;;;;;;15.23;6.30;;;;;;;28.15;46.94;99004.31;4918037;29;20052;-80
2021/06/26 05:10:53;;;;;;;11.05;4.82;;;;;;;28.26;45.86;98994.34;4932228;29;20067;-80
2021/06/26 05:13:19;;;;;;;9.85;4.93;;;;;;;28.37;44.78;98993.50;4917851;29;20048;-82
2021/06/26 05:15:45;;;;;;;8.68;4.40;;;;;;;28.56;44.20;98980.34;4917345;29;20048;-81
2021/06/26 05:18:11;;;;;;;18.30;5.40;;;;;;;28.82;44.23;98978.03;4917432;29;20040;-81
2021/06/26 05:20:40;;;;;;;11.00;5.28;;;;;;;29.02;44.22;98983.88;4917254;29;20060;-81
2021/06/26 05:23:14;;;;;;;17.40;5.60;;;;;;;28.78;44.36;98984.03;4917411;29;20127;-81
2021/06/26 05:25:39;;;;;;;7.75;4.40;;;;;;;28.73;44.85;98985.84;4914750;29;20058;-82
2021/06/26 05:28:05;;;;;;;10.57;5.38;;;;;;;28.79;44.68;98990.38;4915504;29;20131;-82
2021/06/26 05:30:31;;;;;;;10.80;4.78;;;;;;;28.67;45.14;98987.69;4930271;29;20106;-82
2021/06/26 05:32:57;;;;;;;10.45;5.30;;;;;;;28.66;45.66;98986.03;4914884;29;20055;-80
2021/06/26 05:35:23;;;;;;;11.85;5.57;;;;;;;28.90;45.29;98985.88;4914609;29;20048;-80
2021/06/26 05:37:49;;;;;;;8.10;4.70;;;;;;;29.02;44.43;98987.47;4916138;29;20048;-81
2021/06/26 05:40:15;;;;;;;7.85;4.72;;;;;;;29.05;44.42;98983.38;4916330;29;20072;-81
2021/06/26 05:42:41;;;;;;;10.77;5.20;;;;;;;29.18;44.40;98980.25;4917097;29;20048;-80
2021/06/26 05:45:07;;;;;;;18.48;5.10;;;;;;;29.28;43.11;98977.66;4917102;29;20096;-81
2021/06/26 05:47:33;;;;;;;11.80;4.88;;;;;;;29.23;43.65;98980.34;4917245;29;20447;-80
2021/06/26 05:49:59;;;;;;;11.35;4.63;;;;;;;29.31;42.55;98967.25;4916974;29;20071;-81
2021/06/26 05:52:25;;;;;;;10.38;4.75;;;;;;;29.41;42.46;98976.50;4916955;29;20495;-80
2021/06/26 05:54:51;;;;;;;15.07;5.03;;;;;;;29.39;42.48;98966.81;4916785;29;20056;-80
2021/06/26 05:57:17;;;;;;;14.45;4.93;;;;;;;29.55;42.41;98976.94;4915302;29;20131;-80
2021/06/26 05:59:43;;;;;;;11.02;4.80;;;;;;;29.47;41.76;98964.44;4916718;29;20047;-81
2021/06/26 06:02:13;;;;;;;21.45;4.65;;;;;;;29.39;42.53;98966.81;4914489;29;20183;-81
2021/06/26 06:04:40;;;;;;;13.88;4.65;;;;;;;29.46;42.15;98964.69;4931705;29;20043;-80
2021/06/26 06:07:07;;;;;;;6.90;4.60;;;;;;;29.42;42.11;98961.63;4915569;29;20461;-79
2021/06/26 06:09:33;;;;;;;13.32;5.07;;;;;;;29.44;41.77;98961.34;4931123;29;20155;-81
2021/06/26 06:11:59;;;;;;;10.32;4.55;;;;;;;29.51;42.05;98948.22;4915555;29;20128;-80
2021/06/26 06:14:25;;;;;;;17.25;4.90;;;;;;;29.89;41.25;98960.28;4915305;29;20052;-80
2021/06/26 06:16:51;;;;;;;12.77;4.38;;;;;;;29.90;41.00;98951.78;4915536;29;20090;-80
2021/06/26 06:19:17;;;;;;;7.90;4.80;;;;;;;30.03;40.96;98955.22;4916613;29;20055;-80
2021/06/26 06:21:43;;;;;;;11.00;4.43;;;;;;;30.19;40.64;98951.56;4916699;29;20044;-79
2021/06/26 06:24:09;;;;;;;9.23;4.20;;;;;;;30.32;40.12;98947.56;4916212;29;20044;-80
2021/06/26 06:26:34;;;;;;;14.18;4.78;;;;;;;30.48;39.96;98946.59;4916213;29;20059;-80
2021/06/26 06:29:00;;;;;;;8.63;4.72;;;;;;;30.65;39.95;98939.00;4916470;29;20044;-80
2021/06/26 06:31:26;;;;;;;10.13;4.07;;;;;;;30.80;39.44;98948.53;4930722;29;20088;-80
2021/06/26 06:33:52;;;;;;;13.23;3.80;;;;;;;30.63;39.81;98940.38;4915520;29;20059;-80
2021/06/26 06:36:18;;;;;;;21.92;4.80;;;;;;;30.86;39.65;98947.47;4916242;29;20063;-80
2021/06/26 06:38:44;;;;;;;17.48;4.85;;;;;;;30.84;39.71;98949.66;4916218;29;20048;-80
2021/06/26 06:41:10;;;;;;;17.70;4.45;;;;;;;31.03;39.01;98937.13;4916770;29;20111;-81
2021/06/26 06:43:36;;;;;;;15.30;4.63;;;;;;;31.29;39.05;98934.50;4916115;29;20106;-79
2021/06/26 06:46:04;;;;;;;12.50;4.28;;;;;;;31.37;38.83;98936.78;4916313;29;20131;-79
2021/06/26 06:48:30;;;;;;;8.75;4.47;;;;;;;31.40;38.64;98933.47;4916367;29;20052;-80
2021/06/26 06:50:56;;;;;;;10.80;4.40;;;;;;;31.64;38.21;98937.47;4916261;29;20052;-80
2021/06/26 06:53:22;;;;;;;8.60;4.70;;;;;;;31.68;38.68;98937.75;4916132;29;20047;-79
2021/06/26 06:55:51;;;;;;;21.17;5.35;;;;;;;31.65;38.41;98933.59;4916138;29;20558;-79
2021/06/26 06:58:20;;;;;;;11.82;4.22;;;;;;;31.47;38.98;98931.31;4925325;29;20067;-80
2021/06/26 07:00:46;;;;;;;16.73;5.35;;;;;;;31.29;39.57;98924.28;4914797;29;20056;-80
2021/06/26 07:03:12;;;;;;;14.90;4.95;;;;;;;31.56;39.34;98935.22;4915931;29;20102;-81
2021/06/26 07:05:38;;;;;;;12.60;4.53;;;;;;;31.72;38.43;98933.34;4914986;29;20045;-81
2021/06/26 07:08:04;;;;;;;15.38;4.65;;;;;;;31.94;38.21;98929.59;4916289;29;20337;-81
2021/06/26 07:10:30;;;;;;;10.07;4.35;;;;;;;32.24;38.27;98917.75;4916415;29;20063;-80
2021/06/26 07:12:56;;;;;;;13.05;4.50;;;;;;;32.54;37.51;98912.25;4915203;29;20052;-79
2021/06/26 07:15:22;;;;;;;14.57;4.63;;;;;;;32.63;37.30;98910.56;4917084;29;20423;-80
2021/06/26 07:17:48;;;;;;;11.73;5.25;;;;;;;32.63;37.09;98916.13;4903178;29;20051;-81
2021/06/26 07:20:14;;;;;;;8.85;4.50;;;;;;;32.74;36.69;98908.63;4934237;29;20056;-80
2021/06/26 07:22:40;;;;;;;11.63;4.53;;;;;;;32.51;35.63;98912.81;4919651;29;20043;-80
2021/06/26 07:25:06;;;;;;;11.38;4.18;;;;;;;32.30;36.12;98916.63;4919366;29;20055;-80
2021/06/26 07:27:32;;;;;;;11.85;4.05;;;;;;;32.11;35.10;98913.56;4919781;29;20051;-80
2021/06/26 07:29:58;;;;;;;10.55;3.97;;;;;;;32.37;34.71;98906.13;4919464;29;20084;-80
2021/06/26 07:32:24;;;;;;;12.43;3.65;;;;;;;32.43;35.19;98913.38;4902538;29;20052;-81
2021/06/26 07:34:49;;;;;;;6.65;3.42;;;;;;;32.27;34.90;98917.16;4919129;29;20044;-80
2021/06/26 07:37:15;;;;;;;15.43;3.88;;;;;;;32.34;34.90;98909.44;4919516;29;20056;-84
2021/06/26 07:39:41;;;;;;;7.68;3.55;;;;;;;32.74;34.43;98916.13;4918429;29;20056;-83
2021/06/26 07:42:07;;;;;;;7.95;3.60;;;;;;;32.60;34.25;98918.59;4919476;29;20401;-82
2021/06/26 07:44:33;;;;;;;5.43;3.65;;;;;;;32.38;34.59;98907.78;4933862;29;20416;-79
2021/06/26 07:46:59;;;;;;;9.65;3.50;;;;;;;32.36;34.77;98915.53;4919145;29;20076;-80
2021/06/26 07:49:25;;;;;;;8.63;3.75;;;;;;;32.78;34.62;98906.13;4917570;29;20538;-78
2021/06/26 07:51:51;;;;;;;7.28;3.72;;;;;;;33.30;34.15;98896.63;4918910;29;20047;-81
2021/06/26 07:54:17;;;;;;;7.88;3.47;;;;;;;33.34;32.89;98900.50;4902413;29;20048;-81
2021/06/26 07:56:45;;;;;;;10.00;3.72;;;;;;;33.42;33.10;98901.84;4919001;29;20123;-78
2021/06/26 07:59:12;;;;;;;7.95;3.50;;;;;;;33.46;33.13;98898.25;4918916;29;20048;-80
2021/06/26 08:01:38;;;;;;;9.00;3.53;;;;;;;33.66;32.97;98890.94;4902084;29;20456;-77
2021/06/26 08:04:04;;;;;;;11.80;3.50;;;;;;;33.93;32.84;98894.16;4918889;29;20134;-81
2021/06/26 08:06:30;;;;;;;8.35;3.22;;;;;;;34.07;31.97;98884.06;4886521;29;20108;-79
2021/06/26 08:08:56;;;;;;;5.57;3.65;;;;;;;33.81;32.09;98879.78;4933968;29;20056;-80
2021/06/26 08:11:22;;;;;;;10.68;3.42;;;;;;;34.07;32.28;98883.25;4936434;29;20126;-81
2021/06/26 08:13:49;;;;;;;8.50;3.70;;;;;;;34.35;31.93;98889.16;4936737;29;20043;-77
2021/06/26 08:16:15;;;;;;;3.60;3.10;;;;;;;34.53;31.45;98880.97;4937399;29;20043;-80
2021/06/26 08:18:41;;;;;;;13.85;4.13;;;;;;;34.58;30.98;98880.09;4904609;29;20448;-79
2021/06/26 08:21:07;;;;;;;6.38;3.30;;;;;;;34.81;30.69;98872.94;4920378;29;20043;-80
2021/06/26 08:23:33;;;;;;;7.40;3.25;;;;;;;34.95;30.86;98873.06;4920715;29;20188;-81
2021/06/26 08:26:00;;;;;;;10.77;3.40;;;;;;;34.68;30.31;98870.84;4937192;29;20533;-80
2021/06/26 08:28:26;;;;;;;5.47;3.05;;;;;;;34.60;30.82;98874.25;4938633;29;20046;-80
2021/06/26 08:30:52;;;;;;;6.43;3.35;;;;;;;34.95;30.56;98876.69;4939815;29;20098;-80
2021/06/26 08:33:18;;;;;;;7.60;3.50;;;;;;;35.11;29.54;98873.75;4938285;29;20043;-80
2021/06/26 08:35:44;;;;;;;6.45;3.30;;;;;;;34.82;29.14;98870.97;4936651;29;20071;-80
2021/06/26 08:38:10;;;;;;;10.73;3.28;;;;;;;35.04;29.04;98868.56;4938194;29;20067;-79
2021/06/26 08:40:36;;;;;;;5.93;3.08;;;;;;;35.11;28.76;98868.19;4921728;29;20071;-79
2021/06/26 08:43:02;;;;;;;11.85;3.30;;;;;;;35.41;28.53;98859.50;4936437;29;20043;-80
2021/06/26 08:45:28;;;;;;;6.20;3.13;;;;;;;35.73;27.83;98864.38;4936169;29;20183;-79
2021/06/26 08:47:55;;;;;;;5.13;2.95;;;;;;;35.46;27.44;98858.59;4936836;29;20141;-79
2021/06/26 08:50:22;;;;;;;11.63;3.20;;;;;;;35.27;27.63;98861.34;4921058;29;20047;-80
2021/06/26 08:52:48;;;;;;;14.07;3.40;;;;;;;35.51;27.92;98862.19;4937830;29;20548;-78
2021/06/26 08:55:14;;;;;;;7.63;3.35;;;;;;;35.80;27.34;98858.41;4936935;29;20564;-82
2021/06/26 08:57:42;;;;;;;5.97;3.40;;;;;;;35.94;27.20;98864.88;4920080;29;20048;-78
2021/06/26 09:00:19;;;;;;;5.18;2.80;;;;;;;35.73;26.98;98860.75;4935631;29;20044;-79
2021/06/26 09:02:45;;;;;;;4.88;3.38;;;;;;;35.57;26.41;98873.22;4936876;29;20418;-80
2021/06/26 09:05:11;;;;;;;12.48;3.10;;;;;;;35.21;27.50;98855.03;4935817;29;20047;-79
2021/06/26 09:07:38;;;;;;;10.38;2.90;;;;;;;35.16;27.27;98849.50;4903857;29;20047;-81
2021/06/26 09:10:15;;;;;;;5.78;3.00;;;;;;;35.62;27.12;98859.22;4936126;29;20104;-80
2021/06/26 09:12:42;;;;;;;6.60;3.13;;;;;;;35.50;27.37;98849.38;4918949;29;20047;-80
2021/06/26 09:15:08;;;;;;;7.30;3.60;;;;;;;35.48;27.76;98846.06;4919214;29;20467;-78
2021/06/26 09:17:35;;;;;;;9.30;3.33;;;;;;;35.68;27.24;98844.16;4935911;29;20435;-79
2021/06/26 09:20:04;;;;;;;7.82;3.40;;;;;;;36.07;27.60;98843.03;4935204;29;20098;-78
2021/06/26 09:22:43;;;;;;;5.95;3.50;;;;;;;36.32;27.01;98845.41;4935160;29;20507;-78
2021/06/26 09:25:30;;;;;;;9.70;3.05;;;;;;;36.19;26.41;98848.97;4903845;29;20051;-79
2021/06/26 09:28:04;;;;;;;6.05;3.10;;;;;;;36.16;26.41;98846.78;4920710;29;20058;-78
2021/06/26 09:30:32;;;;;;;7.30;3.00;;;;;;;36.07;26.40;98856.94;4919334;29;20150;-79
2021/06/26 09:32:58;;;;;;;8.25;3.03;;;;;;;35.77;26.44;98839.59;4935127;29;20482;-78
2021/06/26 09:35:24;;;;;;;6.82;3.00;;;;;;;36.05;26.30;98840.56;4903315;29;20051;-79
2021/06/26 09:37:50;;;;;;;6.55;2.97;;;;;;;36.08;26.45;98830.78;4903177;29;20074;-79
2021/06/26 09:40:25;;;;;;;4.43;2.83;;;;;;;36.40;26.49;98829.94;4932278;29;20446;-79
2021/06/26 09:42:53;;;;;;;5.85;2.90;;;;;;;36.83;26.07;98824.19;4935306;29;20126;-78
2021/06/26 09:45:20;;;;;;;6.72;3.38;;;;;;;37.05;25.43;98826.28;4914527;29;20052;-79
2021/06/26 09:47:46;;;;;;;5.43;3.00;;;;;;;37.42;25.49;98825.25;4917065;29;20052;-79
2021/06/26 09:50:17;;;;;;;4.93;3.30;;;;;;;37.99;25.45;98828.44;4917070;29;20048;-79
2021/06/26 09:52:47;;;;;;;8.63;3.53;;;;;;;38.06;24.88;98822.41;4936887;29;20094;-79
2021/06/26 09:55:24;;;;;;;10.95;3.28;;;;;;;37.96;24.78;98820.69;4935955;29;20139;-78
2021/06/26 09:57:54;;;;;;;7.73;2.80;;;;;;;38.25;24.93;98825.81;4936272;29;20103;-80
2021/06/26 10:00:22;;;;;;;15.70;3.13;;;;;;;38.05;24.69;98820.75;4936055;29;20102;-79
2021/06/26 10:02:48;;;;;;;5.68;3.42;;;;;;;37.55;24.91;98826.38;4936001;29;20142;-78
2021/06/26 10:05:14;;;;;;;4.82;3.10;;;;;;;37.75;24.90;98817.53;4935971;29;20051;-78
2021/06/26 10:07:41;;;;;;;6.90;3.30;;;;;;;37.97;24.96;98827.09;4934699;29;20047;-78
2021/06/26 10:10:12;;;;;;;;;;;;;;;37.73;25.16;98808.66;4936082;29;20067;-80
2021/06/26 10:12:38;;;;;;;6.45;4.05;;;;;;;38.22;24.51;98803.31;4935687;29;19990;-80
2021/06/26 10:15:05;;;;;;;14.50;3.25;;;;;;;38.65;24.40;98800.78;4935509;29;20098;-81
2021/06/26 10:17:33;;;;;;;5.97;3.13;;;;;;;38.70;24.22;98809.03;4887547;29;20106;-85
2021/06/26 10:19:59;;;;;;;11.10;3.20;;;;;;;39.15;24.20;98788.50;4935449;29;20047;-77
2021/06/26 10:22:25;;;;;;;9.77;3.55;;;;;;;39.53;23.52;98791.56;4934459;29;20190;-80
2021/06/26 10:24:51;;;;;;;6.50;3.38;;;;;;;39.77;23.27;98796.72;4918679;29;20043;-80
2021/06/26 10:27:21;;;;;;;6.70;3.60;;;;;;;39.70;22.55;98791.59;4902896;29;20048;-81
2021/06/26 10:29:47;;;;;;;6.45;2.92;;;;;;;40.15;22.76;98794.06;4935508;29;20058;-82
2021/06/26 10:32:14;;;;;;;7.70;3.47;;;;;;;40.50;21.83;98797.59;4935407;29;20134;-84
2021/06/26 10:34:44;;;;;;;13.52;3.33;;;;;;;40.29;21.84;98788.28;4918579;29;20586;-81
2021/06/26 10:37:20;;;;;;;9.25;3.50;;;;;;;39.55;21.80;98800.47;4918854;29;20462;-82
2021/06/26 10:39:47;;;;;;;7.00;3.05;;;;;;;38.74;23.02;98781.25;4903030;29;20415;-80
2021/06/26 10:42:14;;;;;;;8.82;3.58;;;;;;;37.86;24.39;98779.88;4934329;29;20073;-81
2021/06/26 10:44:41;;;;;;;10.48;3.80;;;;;;;38.61;23.78;98788.63;4934097;29;20438;-82
2021/06/26 10:47:07;;;;;;;12.85;3.80;;;;;;;39.10;23.54;98779.13;4935378;29;20039;-81
2021/06/26 10:49:32;;;;;;;6.13;3.35;;;;;;;39.87;22.75;98779.59;4937197;29;20192;-82
2021/06/26 10:52:15;;;;;;;10.18;3.53;;;;;;;40.52;22.56;98780.47;4939072;29;20114;-82
2021/06/26 10:54:52;;;;;;;10.73;3.55;;;;;;;40.54;21.31;98789.34;4922056;29;20154;-83
2021/06/26 10:57:19;;;;;;;12.38;3.20;;;;;;;40.05;21.72;98788.78;4939239;29;20043;-81
2021/06/26 10:59:59;;;;;;;7.10;3.38;;;;;;;39.26;22.55;98782.31;4954479;28;20138;-81
2021/06/26 11:02:37;;;;;;;8.52;3.65;;;;;;;39.39;22.19;98779.72;4938817;29;20043;-82
2021/06/26 11:05:03;;;;;;;8.48;3.63;;;;;;;38.78;23.01;98766.34;4906304;29;20146;-83
2021/06/26 11:07:33;;;;;;;7.00;3.50;;;;;;;39.41;23.09;98767.03;4939092;29;20398;-83
2021/06/26 11:10:05;;;;;;;6.80;3.75;;;;;;;39.91;23.04;98768.53;4922229;29;20059;-81
2021/06/26 11:12:37;;;;;;;9.73;3.92;;;;;;;41.11;22.00;98766.56;4922417;29;20047;-84
2021/06/26 11:15:04;;;;;;;8.13;3.85;;;;;;;41.93;21.03;98755.75;4921882;29;20472;-83
2021/06/26 11:17:39;;;;;;;8.02;3.60;;;;;;;42.41;20.26;98762.72;4937610;29;20141;-82
2021/06/26 11:20:10;;;;;;;13.48;3.42;;;;;;;41.73;20.52;98773.41;4937613;29;20059;-82
2021/06/26 11:22:36;;;;;;;19.95;3.97;;;;;;;41.34;20.36;98763.44;4921471;29;20054;-82
2021/06/26 11:25:02;;;;;;;9.88;3.58;;;;;;;40.84;20.81;98769.81;4921538;29;20134;-81
2021/06/26 11:27:29;;;;;;;;;;;;;;;40.77;20.77;98756.34;4939034;29;20067;-81